Time;durP1;ratioP1;P1;durP2;ratioP2;P2;SDS_P1;SDS_P2;PMS_P1;PMS_P2;Temp;Humidity;BMP_temperature;BMP_pressure;BME280_temperature;BME280_humidity;BME280_pressure;Samples;Min_cycle;Max_cycle;Signal;HPM_P1;HPM_P2
2022/05/19 00:02:20;;;;;;;17.47;13.30;;;21.10;99.90;;;;;;5027595;28;21098;-54
2022/05/19 00:04:47;;;;;;;18.33;13.03;;;21.10;99.90;;;;;;5017314;28;20288;-53
2022/05/19 00:07:15;;;;;;;17.90;13.63;;;21.00;99.90;;;;;;5018293;28;20287;-54
2022/05/19 00:09:42;;;;;;;16.50;13.67;;;21.00;99.90;;;;;;5029263;28;20299;-53
2022/05/19 00:12:16;;;;;;;19.07;14.27;;;21.00;99.90;;;;;;5029175;28;20262;-54
2022/05/19 00:14:43;;;;;;;19.17;13.60;;;20.90;99.90;;;;;;5026900;28;20257;-54
2022/05/19 00:17:11;;;;;;;19.30;14.37;;;20.80;99.90;;;;;;5031406;28;20597;-54
2022/05/19 00:19:38;;;;;;;14.70;13.10;;;20.80;99.90;;;;;;5019482;28;20197;-54
2022/05/19 00:22:05;;;;;;;15.90;13.90;;;20.90;99.90;;;;;;5017367;28;20239;-54
2022/05/19 00:24:32;;;;;;;17.73;14.40;;;20.90;99.90;;;;;;5018580;28;20452;-53
2022/05/19 00:26:59;;;;;;;20.47;14.83;;;20.80;99.90;;;;;;5022484;28;20586;-53
2022/05/19 00:29:26;;;;;;;17.90;13.90;;;20.80;99.90;;;;;;5021545;28;20200;-54
2022/05/19 00:31:54;;;;;;;20.60;13.63;;;20.80;99.90;;;;;;5023902;28;20685;-54
2022/05/19 00:34:21;;;;;;;21.57;13.93;;;20.80;99.90;;;;;;5029538;28;20200;-55
2022/05/19 00:36:48;;;;;;;16.93;13.63;;;20.80;99.90;;;;;;5024109;28;20284;-54
2022/05/19 00:39:15;;;;;;;20.47;14.17;;;20.70;99.90;;;;;;5025644;28;20211;-54
2022/05/19 00:41:45;;;;;;;17.60;14.03;;;20.80;99.90;;;;;;5021941;28;20762;-53
2022/05/19 00:44:13;;;;;;;18.87;14.80;;;20.80;99.90;;;;;;5023813;28;20669;-54
2022/05/19 00:46:45;;;;;;;17.13;14.20;;;20.70;99.90;;;;;;5022882;28;20233;-56
2022/05/19 00:49:22;;;;;;;22.47;14.90;;;20.70;99.90;;;;;;5022670;28;20227;-53
2022/05/19 00:52:10;;;;;;;18.63;14.53;;;20.60;99.90;;;;;;5023242;28;20221;-55
2022/05/19 00:54:45;;;;;;;20.77;15.30;;;20.60;99.90;;;;;;5023876;28;20640;-55
2022/05/19 00:57:20;;;;;;;15.57;13.87;;;20.60;99.90;;;;;;5022154;28;20210;-54
2022/05/19 01:00:09;;;;;;;24.40;15.67;;;20.60;99.90;;;;;;5026425;28;20232;-54
2022/05/19 01:02:40;;;;;;;20.10;15.53;;;20.50;99.90;;;;;;5023296;28;20676;-54
2022/05/19 01:05:12;;;;;;;20.90;15.07;;;20.50;99.90;;;;;;5020647;28;20270;-53
2022/05/19 01:08:12;;;;;;;18.43;13.87;;;20.60;99.90;;;;;;5023795;28;20652;-54
2022/05/19 01:10:40;;;;;;;22.33;15.50;;;20.50;99.90;;;;;;5020179;28;20232;-53
2022/05/19 01:13:11;;;;;;;21.70;15.33;;;20.50;99.90;;;;;;5026671;28;20619;-54
2022/05/19 01:15:45;;;;;;;18.60;15.30;;;20.40;99.90;;;;;;5018791;28;20661;-53
2022/05/19 01:18:14;;;;;;;19.73;15.40;;;20.40;99.90;;;;;;5023235;28;20279;-54
2022/05/19 01:20:42;;;;;;;19.17;15.17;;;20.40;99.90;;;;;;5017438;28;20193;-54
2022/05/19 01:23:46;;;;;;;20.17;15.07;;;20.40;99.90;;;;;;5021717;28;20232;-54
2022/05/19 01:26:28;;;;;;;23.90;15.23;;;20.30;99.90;;;;;;5021128;28;20224;-55
2022/05/19 01:28:57;;;;;;;21.27;15.60;;;20.30;99.90;;;;;;5025710;28;20278;-54
2022/05/19 01:31:44;;;;;;;21.00;15.27;;;20.30;99.90;;;;;;5018359;28;20217;-53
2022/05/19 01:34:12;;;;;;;22.03;16.10;;;20.30;99.90;;;;;;5021441;28;20212;-54
2022/05/19 01:36:39;;;;;;;20.30;15.63;;;20.30;99.90;;;;;;5024148;28;20287;-54
2022/05/19 01:39:12;;;;;;;17.57;15.67;;;20.30;99.90;;;;;;5024328;28;20223;-54
2022/05/19 01:42:03;;;;;;;23.00;16.23;;;20.20;99.90;;;;;;5025279;28;20334;-54
2022/05/19 01:44:38;;;;;;;19.93;15.80;;;20.20;99.90;;;;;;5016101;28;20242;-54
2022/05/19 01:47:12;;;;;;;23.10;16.07;;;20.20;99.90;;;;;;5027120;28;20270;-54
2022/05/19 01:49:55;;;;;;;20.23;15.67;;;20.20;99.90;;;;;;5011798;28;20663;-54
2022/05/19 01:52:50;;;;;;;18.60;16.53;;;20.20;99.90;;;;;;5024431;28;20660;-54
2022/05/19 01:55:23;;;;;;;21.43;17.03;;;20.30;99.90;;;;;;5023369;28;20224;-52
2022/05/19 01:58:03;;;;;;;25.93;17.13;;;20.20;99.90;;;;;;5024206;28;20196;-53
2022/05/19 02:00:31;;;;;;;26.87;17.57;;;20.20;99.90;;;;;;5022336;28;20708;-54
2022/05/19 02:03:09;;;;;;;20.40;17.13;;;20.20;99.90;;;;;;5020632;28;20239;-53
2022/05/19 02:05:56;;;;;;;24.53;17.53;;;20.10;99.90;;;;;;5017516;28;20212;-54
2022/05/19 02:08:42;;;;;;;22.87;17.37;;;20.10;99.90;;;;;;5027710;28;20269;-54
2022/05/19 02:11:15;;;;;;;23.17;17.70;;;20.20;99.90;;;;;;5024213;28;20637;-54
2022/05/19 02:13:42;;;;;;;21.80;16.73;;;20.20;99.90;;;;;;5011643;28;20257;-54
2022/05/19 02:16:14;;;;;;;22.10;18.13;;;20.20;99.90;;;;;;5023993;28;20294;-54
2022/05/19 02:18:42;;;;;;;23.20;17.57;;;20.20;99.90;;;;;;5015418;28;20203;-53
2022/05/19 02:21:09;;;;;;;18.90;16.90;;;20.10;99.90;;;;;;5025414;28;20216;-54
2022/05/19 02:23:38;;;;;;;21.30;18.20;;;20.10;99.90;;;;;;5022159;28;20658;-54
2022/05/19 02:26:05;;;;;;;20.40;17.37;;;20.20;99.90;;;;;;5024136;28;20204;-54
2022/05/19 02:28:49;;;;;;;24.47;17.23;;;20.20;99.90;;;;;;5019599;28;20233;-53
2022/05/19 02:31:17;;;;;;;26.17;17.30;;;20.20;99.90;;;;;;5019153;28;20668;-54
2022/05/19 02:33:44;;;;;;;24.27;18.53;;;20.20;99.90;;;;;;5019051;28;20258;-54
2022/05/19 02:36:11;;;;;;;20.83;18.53;;;20.20;99.90;;;;;;5025077;28;20279;-54
2022/05/19 02:38:38;;;;;;;23.63;17.50;;;20.20;99.90;;;;;;5020633;28;20200;-54
2022/05/19 02:41:06;;;;;;;22.17;17.87;;;20.20;99.90;;;;;;5030699;28;20722;-54
2022/05/19 02:43:32;;;;;;;20.37;17.43;;;20.20;99.90;;;;;;5032275;28;20349;-54
2022/05/19 02:45:59;;;;;;;19.43;17.03;;;20.30;99.90;;;;;;5030740;28;20193;-54
2022/05/19 02:48:26;;;;;;;25.63;18.00;;;20.30;99.90;;;;;;5023426;28;20200;-54
2022/05/19 02:50:53;;;;;;;19.97;17.53;;;20.20;99.90;;;;;;5026995;28;20208;-52
2022/05/19 02:53:20;;;;;;;25.87;18.83;;;20.10;99.90;;;;;;5026469;28;20612;-52
2022/05/19 02:55:47;;;;;;;27.60;19.23;;;19.90;99.90;;;;;;5032023;28;20287;-53
2022/05/19 02:58:15;;;;;;;19.67;17.47;;;20.00;99.90;;;;;;5029845;28;20207;-53
2022/05/19 03:00:45;;;;;;;21.40;17.83;;;20.10;99.90;;;;;;5024635;28;20197;-53
2022/05/19 03:03:12;;;;;;;21.33;17.57;;;20.30;99.90;;;;;;5031804;28;20264;-52
2022/05/19 03:05:40;;;;;;;18.97;17.03;;;20.30;99.90;;;;;;5024439;28;20208;-53
2022/05/19 03:08:08;;;;;;;21.67;15.47;;;20.30;99.90;;;;;;5013282;28;20270;-52
2022/05/19 03:10:37;;;;;;;16.53;14.60;;;20.50;99.90;;;;;;5023385;28;20708;-52
2022/05/19 03:13:05;;;;;;;18.67;14.47;;;20.60;99.90;;;;;;5025688;28;20207;-53
2022/05/19 03:15:33;;;;;;;19.13;13.60;;;20.70;99.90;;;;;;5031261;28;20571;-53
2022/05/19 03:18:01;;;;;;;16.40;13.80;;;20.80;99.90;;;;;;5031321;28;20536;-55
2022/05/19 03:20:28;;;;;;;16.40;12.80;;;20.80;99.90;;;;;;5022109;28;20216;-57
2022/05/19 03:22:55;;;;;;;12.50;10.93;;;20.90;99.90;;;;;;5027376;28;20279;-54
2022/05/19 03:25:21;;;;;;;14.07;10.83;;;20.90;99.90;;;;;;5028645;28;20196;-55
2022/05/19 03:27:48;;;;;;;11.20;9.83;;;20.80;99.90;;;;;;5030466;28;20193;-54
2022/05/19 03:30:17;;;;;;;20.07;8.70;;;20.70;99.90;;;;;;5027758;28;20287;-54
2022/05/19 03:32:44;;;;;;;14.33;9.37;;;20.70;99.90;;;;;;5024110;28;20240;-54
2022/05/19 03:35:13;;;;;;;13.73;9.60;;;20.70;99.90;;;;;;5028668;28;20749;-54
2022/05/19 03:37:40;;;;;;;14.70;8.47;;;20.70;99.90;;;;;;5025645;28;20232;-54
2022/05/19 03:40:09;;;;;;;9.90;8.80;;;20.70;99.90;;;;;;5025934;28;20237;-54
2022/05/19 03:42:36;;;;;;;12.90;9.03;;;20.70;99.90;;;;;;5024598;28;20300;-55
2022/05/19 03:45:04;;;;;;;12.87;9.33;;;20.70;99.90;;;;;;5023818;28;20255;-53
2022/05/19 03:47:31;;;;;;;12.17;8.90;;;20.70;99.90;;;;;;5029591;28;20595;-54
2022/05/19 03:49:58;;;;;;;10.97;8.67;;;20.70;99.90;;;;;;5028607;28;20197;-54
2022/05/19 03:52:25;;;;;;;8.53;6.60;;;20.70;99.90;;;;;;5027738;28;20281;-54
2022/05/19 03:54:52;;;;;;;8.27;5.57;;;20.60;99.90;;;;;;5023846;28;20884;-54
2022/05/19 03:57:21;;;;;;;6.73;5.17;;;20.60;99.90;;;;;;5019019;28;20201;-54
2022/05/19 03:59:49;;;;;;;4.83;3.50;;;20.60;99.90;;;;;;5019408;28;20667;-54
2022/05/19 04:02:16;;;;;;;6.27;3.40;;;20.50;99.90;;;;;;5024922;28;20240;-53
2022/05/19 04:04:59;;;;;;;5.00;3.50;;;20.50;99.90;;;;;;5025084;28;20204;-54
2022/05/19 04:07:26;;;;;;;4.90;3.60;;;20.40;99.90;;;;;;5027003;28;20308;-54
2022/05/19 04:09:53;;;;;;;7.53;3.33;;;20.50;99.90;;;;;;5023248;28;20552;-54
2022/05/19 04:12:20;;;;;;;4.80;3.30;;;20.40;99.90;;;;;;5030352;28;20221;-54
2022/05/19 04:14:48;;;;;;;5.53;2.80;;;20.40;99.90;;;;;;5025111;28;20228;-54
2022/05/19 04:17:15;;;;;;;6.80;3.20;;;20.30;99.90;;;;;;5021643;28;20214;-56
2022/05/19 04:19:42;;;;;;;5.50;2.80;;;20.40;99.90;;;;;;5020537;28;20255;-54
2022/05/19 04:22:09;;;;;;;6.63;3.20;;;20.40;99.90;;;;;;5024748;28;20278;-54
2022/05/19 04:24:36;;;;;;;4.37;3.90;;;20.40;99.90;;;;;;5025566;28;20196;-56
2022/05/19 04:27:03;;;;;;;6.27;3.57;;;20.20;99.90;;;;;;5023161;28;20232;-55
2022/05/19 04:29:30;;;;;;;5.03;3.10;;;20.40;99.90;;;;;;5027113;28;20530;-55
2022/05/19 04:31:57;;;;;;;6.67;3.27;;;20.30;99.90;;;;;;5025930;28;20228;-53
2022/05/19 04:34:24;;;;;;;5.00;3.30;;;20.20;99.90;;;;;;5017237;28;20279;-54
2022/05/19 04:36:51;;;;;;;3.73;3.30;;;20.30;99.90;;;;;;5025489;28;20232;-54
2022/05/19 04:39:18;;;;;;;7.60;3.83;;;20.20;99.90;;;;;;5029533;28;20208;-54
2022/05/19 04:41:44;;;;;;;5.50;4.07;;;20.30;99.90;;;;;;5028568;28;20564;-53
2022/05/19 04:44:11;;;;;;;5.87;3.90;;;20.30;99.90;;;;;;5028006;28;20204;-55
2022/05/19 04:46:38;;;;;;;5.27;4.17;;;20.30;99.90;;;;;;5030529;28;20279;-54
2022/05/19 04:49:05;;;;;;;7.50;5.30;;;20.10;99.90;;;;;;5026657;28;20201;-54
2022/05/19 04:51:32;;;;;;;8.00;4.07;;;20.10;99.90;;;;;;5025891;28;20244;-54
2022/05/19 04:53:58;;;;;;;6.83;4.33;;;20.20;99.90;;;;;;5024250;28;20290;-53
2022/05/19 04:56:25;;;;;;;8.17;4.40;;;20.20;99.90;;;;;;5016186;28;20296;-54
2022/05/19 04:58:52;;;;;;;6.80;4.43;;;20.30;99.90;;;;;;5019777;28;20279;-54
2022/05/19 05:01:19;;;;;;;6.17;3.60;;;20.20;99.90;;;;;;5023134;28;20300;-54
2022/05/19 05:03:46;;;;;;;4.10;3.53;;;20.10;99.90;;;;;;5017835;28;20290;-54
2022/05/19 05:06:13;;;;;;;4.83;3.63;;;20.10;99.90;;;;;;5018602;28;20205;-54
2022/05/19 05:08:40;;;;;;;4.57;3.30;;;20.10;99.90;;;;;;5022515;28;20502;-54
2022/05/19 05:11:07;;;;;;;5.07;3.40;;;20.10;99.90;;;;;;5020632;28;20240;-54
2022/05/19 05:13:34;;;;;;;6.53;3.90;;;20.30;99.90;;;;;;5025150;28;20247;-54
2022/05/19 05:16:00;;;;;;;5.83;4.60;;;20.20;99.90;;;;;;5022285;28;20262;-54
2022/05/19 05:18:27;;;;;;;5.20;3.60;;;20.10;99.90;;;;;;5023637;28;20208;-54
2022/05/19 05:20:54;;;;;;;5.70;3.60;;;20.00;99.90;;;;;;5022660;28;20226;-54
2022/05/19 05:23:21;;;;;;;8.07;4.40;;;19.80;99.90;;;;;;5022352;28;20784;-55
2022/05/19 05:25:47;;;;;;;5.07;3.90;;;19.80;99.90;;;;;;5025617;28;20296;-54
2022/05/19 05:28:14;;;;;;;5.07;3.73;;;19.90;99.90;;;;;;5024356;28;20296;-57
2022/05/19 05:30:41;;;;;;;11.00;4.27;;;19.60;99.90;;;;;;5021703;28;20235;-54
2022/05/19 05:33:10;;;;;;;6.63;3.87;;;19.40;99.90;;;;;;5023572;28;20221;-55
2022/05/19 05:35:37;;;;;;;6.97;3.80;;;19.50;99.90;;;;;;5014495;28;20679;-54
2022/05/19 05:38:04;;;;;;;4.80;4.30;;;19.50;99.90;;;;;;5017978;28;20600;-54
2022/05/19 05:40:33;;;;;;;5.53;3.97;;;19.50;99.90;;;;;;5019970;28;20288;-54
2022/05/19 05:43:07;;;;;;;7.83;4.10;;;19.50;99.90;;;;;;5019012;28;20243;-54
2022/05/19 05:45:35;;;;;;;5.97;3.70;;;19.60;99.90;;;;;;5018026;28;20198;-54
2022/05/19 05:48:02;;;;;;;5.50;3.57;;;19.40;99.90;;;;;;5015376;28;20247;-54
2022/05/19 05:50:29;;;;;;;5.67;3.47;;;19.40;99.90;;;;;;5018814;28;20212;-54
2022/05/19 05:52:56;;;;;;;6.73;3.67;;;19.50;99.90;;;;;;5018268;28;20236;-55
2022/05/19 05:55:22;;;;;;;7.67;3.60;;;19.50;99.90;;;;;;5012889;28;20237;-54
2022/05/19 05:57:49;;;;;;;7.47;4.17;;;19.60;99.90;;;;;;5019962;28;20282;-54
2022/05/19 06:00:17;;;;;;;4.00;3.60;;;19.60;99.90;;;;;;5014331;28;20221;-54
2022/05/19 06:02:44;;;;;;;4.93;3.60;;;19.60;99.90;;;;;;5023603;28;20268;-54
2022/05/19 06:05:12;;;;;;;7.00;3.90;;;19.60;99.90;;;;;;5009295;28;20205;-54
2022/05/19 06:07:40;;;;;;;6.70;3.87;;;19.40;99.90;;;;;;5008434;28;20292;-54
2022/05/19 06:10:08;;;;;;;4.13;3.73;;;19.30;99.90;;;;;;5006820;28;20398;-54
2022/05/19 06:12:36;;;;;;;5.17;4.47;;;19.20;99.90;;;;;;5010793;28;20747;-53
2022/05/19 06:15:06;;;;;;;5.33;4.00;;;19.20;99.90;;;;;;5015603;28;20292;-55
2022/05/19 06:17:33;;;;;;;4.73;3.93;;;19.40;99.90;;;;;;5014819;28;20247;-54
2022/05/19 06:20:00;;;;;;;5.67;4.13;;;19.50;99.90;;;;;;5004818;28;20204;-53
2022/05/19 06:22:27;;;;;;;7.53;4.90;;;19.40;99.90;;;;;;5007033;28;20235;-54
2022/05/19 06:24:54;;;;;;;6.07;4.27;;;19.50;99.90;;;;;;5016688;28;20200;-54
2022/05/19 06:27:21;;;;;;;4.70;4.00;;;19.70;99.90;;;;;;5025871;28;20254;-55
2022/05/19 06:29:48;;;;;;;4.97;4.47;;;19.60;99.90;;;;;;5023442;28;20211;-60
2022/05/19 06:32:14;;;;;;;5.03;4.07;;;19.70;99.90;;;;;;5021014;28;20220;-53
2022/05/19 06:34:41;;;;;;;7.77;4.70;;;19.70;99.90;;;;;;5021258;28;20224;-53
2022/05/19 06:37:08;;;;;;;7.20;4.93;;;19.80;99.90;;;;;;5023820;28;20200;-54
2022/05/19 06:39:35;;;;;;;6.80;5.00;;;19.80;99.90;;;;;;5027699;28;20713;-54
2022/05/19 06:42:02;;;;;;;4.67;4.27;;;19.90;99.90;;;;;;5019654;28;20572;-54
2022/05/19 06:44:35;;;;;;;5.60;4.87;;;20.00;99.90;;;;;;5026873;28;20292;-54
2022/05/19 06:47:06;;;;;;;6.57;4.83;;;20.00;99.90;;;;;;5021116;28;20248;-54
2022/05/19 06:49:32;;;;;;;8.37;5.80;;;20.00;99.90;;;;;;5015052;28;20236;-54
2022/05/19 06:51:59;;;;;;;5.67;4.70;;;20.00;99.90;;;;;;5033275;28;20691;-55
2022/05/19 06:54:26;;;;;;;6.63;5.13;;;20.10;99.90;;;;;;5019989;28;20301;-55
2022/05/19 06:56:52;;;;;;;6.87;4.93;;;20.20;99.90;;;;;;5020615;28;20232;-54
2022/05/19 06:59:22;;;;;;;7.90;5.17;;;20.20;99.90;;;;;;5023447;28;20229;-54
2022/05/19 07:01:48;;;;;;;8.50;5.90;;;20.20;99.90;;;;;;5027360;28;20632;-54
2022/05/19 07:04:16;;;;;;;6.47;5.83;;;20.20;99.90;;;;;;5018644;28;20240;-56
2022/05/19 07:06:43;;;;;;;7.00;6.20;;;20.20;99.90;;;;;;5022850;28;20251;-54
2022/05/19 07:09:10;;;;;;;7.73;6.23;;;20.30;99.90;;;;;;5020379;28;20197;-53
2022/05/19 07:11:36;;;;;;;8.57;7.03;;;20.30;99.90;;;;;;5012695;28;20297;-53
2022/05/19 07:14:06;;;;;;;6.97;6.23;;;20.30;99.90;;;;;;5012844;28;20699;-54
2022/05/19 07:16:34;;;;;;;8.67;6.17;;;20.30;99.90;;;;;;5013173;28;20197;-54
2022/05/19 07:21:47;;;;;;;7.13;6.43;;;20.60;99.90;;;;;;5016258;28;20300;-54
2022/05/19 07:24:17;;;;;;;10.23;6.63;;;20.70;99.90;;;;;;5019739;28;20283;-54
2022/05/19 07:26:45;;;;;;;6.93;5.80;;;20.70;99.90;;;;;;5024515;28;20224;-54
2022/05/19 07:29:13;;;;;;;8.63;7.10;;;20.90;99.90;;;;;;5025278;28;20724;-53
2022/05/19 07:31:41;;;;;;;7.63;6.77;;;21.10;99.90;;;;;;5016735;28;20232;-54
2022/05/19 07:34:10;;;;;;;9.90;7.07;;;21.40;99.90;;;;;;5017807;28;20224;-54
2022/05/19 07:36:37;;;;;;;13.47;8.07;;;21.60;99.90;;;;;;5022168;28;20197;-54
2022/05/19 07:39:05;;;;;;;7.43;6.63;;;21.50;99.90;;;;;;5025786;28;20261;-54
2022/05/19 07:41:33;;;;;;;7.73;6.93;;;21.80;99.90;;;;;;5022697;28;20617;-54
2022/05/19 07:44:00;;;;;;;8.57;7.70;;;21.70;99.90;;;;;;5024489;28;20288;-56
2022/05/19 07:46:28;;;;;;;10.97;7.57;;;21.90;99.90;;;;;;5020012;28;20270;-54
2022/05/19 07:48:56;;;;;;;13.53;7.30;;;22.00;99.90;;;;;;5024526;28;20197;-54
2022/05/19 07:51:29;;;;;;;8.10;7.13;;;22.10;99.90;;;;;;5020230;28;20276;-54
2022/05/19 07:53:55;;;;;;;8.43;7.50;;;22.10;99.90;;;;;;5017398;28;20308;-56
2022/05/19 07:56:22;;;;;;;12.70;7.70;;;22.20;99.90;;;;;;5018778;28;20284;-54
2022/05/19 07:58:51;;;;;;;8.47;6.70;;;22.40;99.90;;;;;;5016248;28;20562;-54
2022/05/19 08:01:18;;;;;;;9.87;8.07;;;22.50;99.90;;;;;;5026554;28;20200;-54
2022/05/19 08:03:45;;;;;;;9.80;7.03;;;22.50;99.90;;;;;;5017548;28;20323;-54
2022/05/19 08:06:12;;;;;;;8.20;7.40;;;22.80;99.90;;;;;;5018171;28;20204;-56
2022/05/19 08:08:39;;;;;;;12.67;8.50;;;23.00;99.90;;;;;;5019236;28;20221;-54
2022/05/19 08:11:07;;;;;;;10.07;8.20;;;23.20;99.90;;;;;;5016122;28;20258;-56
2022/05/19 08:16:19;;;;;;;9.40;8.40;;;23.30;99.90;;;;;;5016742;28;20611;-55
2022/05/19 08:18:46;;;;;;;11.57;9.33;;;23.10;99.90;;;;;;5016101;28;20536;-54
2022/05/19 08:21:14;;;;;;;9.57;8.40;;;23.10;99.90;;;;;;5025905;28;20274;-59
2022/05/19 08:23:44;;;;;;;10.10;7.87;;;23.40;99.90;;;;;;5027788;28;20637;-55
2022/05/19 08:26:12;;;;;;;11.00;9.47;;;23.80;99.90;;;;;;5024827;28;20568;-55
2022/05/19 08:28:42;;;;;;;11.10;9.70;;;23.80;99.90;;;;;;5021219;28;20622;-54
2022/05/19 08:31:21;;;;;;;10.17;8.20;;;24.10;99.90;;;;;;5028396;28;20238;-55
2022/05/19 08:33:49;;;;;;;13.33;9.27;;;24.40;99.90;;;;;;5032692;28;20217;-55
2022/05/19 08:36:21;;;;;;;10.43;9.37;;;24.10;99.90;;;;;;5021275;28;20667;-55
2022/05/19 08:38:48;;;;;;;11.13;10.03;;;24.30;99.90;;;;;;5020852;28;20632;-54
2022/05/19 08:41:33;;;;;;;11.50;10.20;;;24.60;99.90;;;;;;5022756;28;20193;-54
2022/05/19 08:44:11;;;;;;;11.03;9.80;;;24.80;99.90;;;;;;5020360;28;20205;-54
2022/05/19 08:46:41;;;;;;;12.33;11.03;;;24.50;99.90;;;;;;5016870;28;20291;-54
2022/05/19 08:49:13;;;;;;;11.67;10.47;;;24.60;99.90;;;;;;5022459;28;20280;-54
2022/05/19 08:52:02;;;;;;;11.93;10.73;;;24.70;99.90;;;;;;5022077;28;20307;-56
2022/05/19 08:54:31;;;;;;;10.63;9.63;;;24.70;99.90;;;;;;5021049;28;20210;-54
2022/05/19 08:57:19;;;;;;;12.07;9.80;;;24.80;99.90;;;;;;5021695;28;20224;-54
2022/05/19 08:59:58;;;;;;;13.87;9.10;;;25.20;99.90;;;;;;5020789;28;20223;-55
2022/05/19 09:02:37;;;;;;;12.20;9.80;;;25.60;99.90;;;;;;5017428;28;20224;-54
2022/05/19 09:05:41;;;;;;;10.10;9.20;;;25.70;99.90;;;;;;5018558;28;20298;-54
2022/05/19 09:08:36;;;;;;;11.10;10.03;;;25.70;99.90;;;;;;5024310;28;20205;-54
2022/05/19 09:11:05;;;;;;;10.07;9.07;;;25.50;99.90;;;;;;5018429;28;20204;-54
2022/05/19 09:13:51;;;;;;;9.97;8.60;;;25.40;99.90;;;;;;5020083;28;20221;-54
2022/05/19 09:16:21;;;;;;;11.00;9.90;;;25.10;99.90;;;;;;5020057;28;20213;-54
2022/05/19 09:19:07;;;;;;;11.43;9.80;;;25.00;99.90;;;;;;5019558;28;20209;-56
2022/05/19 09:21:36;;;;;;;9.67;8.67;;;25.00;99.90;;;;;;5023426;28;20291;-56
2022/05/19 09:24:04;;;;;;;9.60;8.63;;;24.80;99.90;;;;;;5014625;28;20655;-54
2022/05/19 09:26:38;;;;;;;10.23;9.03;;;24.80;99.90;;;;;;5021310;28;20204;-54
2022/05/19 09:29:09;;;;;;;10.10;9.10;;;24.80;99.90;;;;;;5020715;28;20736;-54
2022/05/19 09:31:39;;;;;;;9.03;8.10;;;24.70;99.90;;;;;;5019953;28;20953;-55
2022/05/19 09:34:08;;;;;;;8.03;7.33;;;24.50;99.90;;;;;;5020107;28;20212;-55
2022/05/19 09:36:41;;;;;;;9.20;7.47;;;24.40;99.90;;;;;;5020393;28;20228;-55
2022/05/19 09:39:15;;;;;;;8.33;6.43;;;24.30;99.90;;;;;;5015342;28;20648;-55
2022/05/19 09:41:48;;;;;;;8.10;7.30;;;24.50;99.90;;;;;;5014963;28;20292;-54
2022/05/19 09:44:21;;;;;;;9.17;6.90;;;24.40;99.90;;;;;;5017350;28;20205;-55
2022/05/19 09:46:54;;;;;;;11.27;6.90;;;24.70;99.90;;;;;;5015883;28;20293;-54
2022/05/19 09:49:30;;;;;;;7.43;6.47;;;24.90;99.90;;;;;;5018591;28;20792;-54
2022/05/19 09:52:03;;;;;;;7.87;7.07;;;25.20;99.90;;;;;;5014688;28;20237;-54
2022/05/19 09:54:32;;;;;;;8.07;6.80;;;25.50;99.90;;;;;;5014623;28;20307;-57
2022/05/19 09:57:10;;;;;;;9.80;8.37;;;25.70;99.90;;;;;;5016899;28;20255;-55
2022/05/19 09:59:49;;;;;;;12.43;8.23;;;25.60;99.90;;;;;;5016237;28;20189;-54
2022/05/19 10:02:18;;;;;;;11.40;8.03;;;25.70;99.90;;;;;;5018625;28;20247;-55
2022/05/19 10:04:55;;;;;;;8.37;7.57;;;25.90;99.90;;;;;;5019160;28;20240;-54
2022/05/19 10:07:26;;;;;;;9.10;7.63;;;26.00;99.90;;;;;;5010531;28;20579;-54
2022/05/19 10:09:59;;;;;;;11.23;8.17;;;26.00;99.90;;;;;;5018428;28;20759;-54
2022/05/19 10:12:32;;;;;;;7.77;6.87;;;26.20;99.90;;;;;;5023774;28;20519;-54
2022/05/19 10:15:00;;;;;;;8.77;6.60;;;26.50;99.90;;;;;;5028228;28;20270;-54
2022/05/19 10:17:55;;;;;;;10.93;6.90;;;26.40;99.90;;;;;;5022420;28;20676;-54
2022/05/19 10:20:30;;;;;;;8.97;7.87;;;26.50;99.90;;;;;;5018943;28;20286;-54
2022/05/19 10:23:50;;;;;;;8.83;7.10;;;26.30;99.90;;;;;;5022451;28;20227;-54
2022/05/19 10:26:26;;;;;;;8.30;7.33;;;26.20;99.90;;;;;;5025615;28;20295;-54
2022/05/19 10:32:12;;;;;;;8.75;7.38;;;26.10;99.90;;;;;;5023075;28;20211;-56
2022/05/19 10:35:16;;;;;;;8.73;6.30;;;26.20;99.90;;;;;;5027504;28;20224;-54
2022/05/19 10:38:16;;;;;;;9.37;7.00;;;26.20;99.90;;;;;;5020691;28;20209;-55
2022/05/19 10:41:26;;;;;;;9.07;6.70;;;26.40;99.90;;;;;;5028061;28;20620;-56
2022/05/19 10:44:14;;;;;;;9.47;6.43;;;26.30;99.90;;;;;;4991544;28;20306;-55
2022/05/19 10:47:07;;;;;;;9.03;6.77;;;26.40;99.90;;;;;;5028860;28;20240;-56
2022/05/19 10:50:03;;;;;;;9.50;7.10;;;26.20;99.90;;;;;;5020230;28;20227;-55
2022/05/19 10:52:58;;;;;;;8.60;6.23;;;26.10;99.90;;;;;;5026622;28;20293;-55
2022/05/19 10:56:02;;;;;;;8.03;6.90;;;26.30;99.90;;;;;;5028130;28;20260;-54
2022/05/19 10:58:38;;;;;;;10.20;7.37;;;26.30;99.90;;;;;;5021796;28;20196;-54
2022/05/19 11:01:17;;;;;;;7.23;6.53;;;26.20;99.90;;;;;;5028497;28;20210;-54
2022/05/19 11:04:12;;;;;;;9.17;7.60;;;25.90;99.90;;;;;;5014472;28;20238;-53
2022/05/19 11:06:48;;;;;;;8.70;6.00;;;25.80;99.90;;;;;;5023382;28;20279;-56
2022/05/19 11:09:33;;;;;;;9.73;6.77;;;25.70;99.90;;;;;;5019898;28;20287;-55
2022/05/19 11:12:18;;;;;;;8.37;7.33;;;25.60;99.90;;;;;;5020937;28;20246;-55
2022/05/19 11:14:54;;;;;;;7.60;6.80;;;25.50;99.90;;;;;;5021021;28;20266;-54
2022/05/19 11:17:37;;;;;;;8.63;7.03;;;25.60;99.90;;;;;;5025682;28;20267;-55
2022/05/19 11:20:11;;;;;;;7.77;7.07;;;25.60;99.90;;;;;;5012374;28;20296;-54
2022/05/19 11:22:40;;;;;;;8.33;7.17;;;25.40;99.90;;;;;;5022243;28;20797;-56
2022/05/19 11:28:12;;;;;;;8.40;6.93;;;25.00;99.90;;;;;;5023798;28;20205;-54
2022/05/19 11:30:58;;;;;;;7.20;5.90;;;24.80;99.90;;;;;;5020085;28;20652;-56
2022/05/19 11:33:30;;;;;;;10.90;6.83;;;24.80;99.90;;;;;;5017166;28;20222;-54
2022/05/19 11:36:03;;;;;;;9.07;6.63;;;24.70;99.90;;;;;;5018991;28;20306;-54
2022/05/19 11:39:19;;;;;;;6.33;1.60;;;24.60;99.90;;;;;;5016578;28;20289;-54
2022/05/19 11:41:49;;;;;;;7.43;1.70;;;23.10;99.90;;;;;;4981693;28;20614;-54
2022/05/19 11:44:25;;;;;;;5.13;1.20;;;21.10;99.90;;;;;;4981369;28;20241;-53
2022/05/19 11:47:13;;;;;;;9.73;1.77;;;20.40;99.90;;;;;;5001969;28;21468;-53
2022/05/19 11:55:56;;;;;;;3.30;1.80;;;18.90;99.90;;;;;;5015552;28;20307;-54
2022/05/19 11:58:28;;;;;;;9.83;2.60;;;18.20;99.90;;;;;;5017463;28;20225;-54
2022/05/19 12:01:11;;;;;;;7.13;2.50;;;18.00;99.90;;;;;;5017541;28;20197;-54
2022/05/19 12:04:03;;;;;;;5.10;2.50;;;17.90;99.90;;;;;;5014000;28;20228;-54
2022/05/19 12:06:34;;;;;;;6.73;3.13;;;18.10;99.90;;;;;;5012862;28;20279;-54
2022/05/19 12:09:19;;;;;;;5.07;2.87;;;18.20;99.90;;;;;;5014807;28;20197;-54
2022/05/19 12:11:57;;;;;;;5.67;3.63;;;18.30;99.90;;;;;;5015134;28;20497;-54
2022/05/19 12:14:24;;;;;;;5.03;3.60;;;18.50;99.90;;;;;;5020427;28;20536;-53
2022/05/19 12:17:06;;;;;;;4.30;3.57;;;18.40;99.90;;;;;;5018977;28;20295;-53
2022/05/19 12:19:41;;;;;;;6.30;3.40;;;18.30;99.90;;;;;;5017310;28;20214;-52
2022/05/19 12:22:26;;;;;;;5.33;3.77;;;18.30;99.90;;;;;;5012902;28;20233;-55
2022/05/19 12:25:01;;;;;;;6.57;4.27;;;18.40;99.90;;;;;;5003040;28;20209;-54
2022/05/19 12:27:41;;;;;;;6.33;4.37;;;18.60;99.90;;;;;;5005741;28;20290;-54
2022/05/19 12:33:29;;;;;;;6.50;4.77;;;18.80;99.90;;;;;;5015803;28;20211;-54
2022/05/19 12:36:10;;;;;;;10.50;5.40;;;18.90;99.90;;;;;;5010170;28;20213;-53
2022/05/19 12:38:40;;;;;;;12.20;7.13;;;18.90;99.90;;;;;;5016836;28;20227;-53
2022/05/19 12:41:33;;;;;;;8.97;6.07;;;19.00;99.90;;;;;;5018341;28;20209;-53
2022/05/19 12:44:29;;;;;;;8.63;6.10;;;18.90;99.90;;;;;;5012090;28;20208;-53
2022/05/19 12:47:04;;;;;;;8.73;5.70;;;19.20;99.90;;;;;;5013640;28;20233;-54
2022/05/19 12:49:33;;;;;;;10.47;6.27;;;18.90;99.90;;;;;;5014277;28;20669;-54
2022/05/19 12:52:08;;;;;;;14.93;7.03;;;18.90;99.90;;;;;;5015937;28;20232;-54
2022/05/19 12:54:36;;;;;;;9.70;7.13;;;19.20;99.90;;;;;;5018401;28;20307;-54
2022/05/19 12:57:08;;;;;;;14.57;8.53;;;19.30;99.90;;;;;;5013049;28;20980;-54
2022/05/19 12:59:44;;;;;;;8.93;7.40;;;19.40;99.90;;;;;;5020956;28;20307;-53
2022/05/19 13:02:21;;;;;;;11.10;8.37;;;19.30;99.90;;;;;;5016515;28;20232;-54
2022/05/19 13:04:55;;;;;;;12.40;7.87;;;19.40;99.90;;;;;;5017165;28;20972;-53
2022/05/19 13:07:35;;;;;;;10.33;8.33;;;19.40;99.90;;;;;;5013140;28;20913;-53
2022/05/19 13:10:02;;;;;;;9.10;7.70;;;19.50;99.90;;;;;;5013382;28;20299;-54
2022/05/19 13:12:43;;;;;;;11.80;7.80;;;19.60;99.90;;;;;;5014728;28;20233;-53
2022/05/19 13:15:10;;;;;;;11.17;8.20;;;19.50;99.90;;;;;;5008276;28;20868;-54
2022/05/19 13:17:43;;;;;;;13.53;8.47;;;19.70;99.90;;;;;;5016075;28;20287;-54
2022/05/19 13:20:19;;;;;;;10.73;8.27;;;20.10;99.90;;;;;;5014646;28;20396;-54
2022/05/19 13:23:17;;;;;;;12.40;8.33;;;20.10;99.90;;;;;;5011946;28;20228;-54
2022/05/19 13:25:47;;;;;;;10.07;8.60;;;20.20;99.90;;;;;;5013410;28;20378;-54
2022/05/19 13:31:23;;;;;;;9.47;8.13;;;20.10;99.90;;;;;;5010317;28;20214;-55